sensor_id;sensor_type;location;lat;lon;timestamp;pressure;altitude;pressure_sealevel;temperature;humidity
38852;BME280;24605;50.092;9.182;2023-08-31T00:01:29;155368.78;;;13.12;100.00
38852;BME280;24605;50.092;9.182;2023-08-31T00:03:56;155392.31;;;13.21;100.00
38852;BME280;24605;50.092;9.182;2023-08-31T00:06:24;155394.91;;;13.22;100.00
38852;BME280;24605;50.092;9.182;2023-08-31T00:08:52;155375.31;;;13.14;100.00
38852;BME280;24605;50.092;9.182;2023-08-31T00:11:18;155379.22;;;13.16;100.00
38852;BME280;24605;50.092;9.182;2023-08-31T00:13:46;155397.47;;;13.23;100.00
38852;BME280;24605;50.092;9.182;2023-08-31T00:16:12;155380.53;;;13.16;100.00
38852;BME280;24605;50.092;9.182;2023-08-31T00:18:40;155406.63;;;13.27;100.00
38852;BME280;24605;50.092;9.182;2023-08-31T00:21:06;155375.31;;;13.14;100.00
38852;BME280;24605;50.092;9.182;2023-08-31T00:23:33;155347.91;;;13.04;100.00
38852;BME280;24605;50.092;9.182;2023-08-31T00:26:01;155342.66;;;13.01;100.00
38852;BME280;24605;50.092;9.182;2023-08-31T00:31:07;155381.81;;;13.17;100.00
38852;BME280;24605;50.092;9.182;2023-08-31T00:33:34;155349.19;;;13.04;100.00
38852;BME280;24605;50.092;9.182;2023-08-31T00:36:01;155327.00;;;12.95;100.00
38852;BME280;24605;50.092;9.182;2023-08-31T00:38:31;155346.56;;;13.03;100.00
38852;BME280;24605;50.092;9.182;2023-08-31T00:40:58;155321.78;;;12.93;100.00
38852;BME280;24605;50.092;9.182;2023-08-31T00:43:26;155340.03;;;13.00;100.00
38852;BME280;24605;50.092;9.182;2023-08-31T00:45:55;155340.03;;;13.00;100.00
38852;BME280;24605;50.092;9.182;2023-08-31T00:48:23;155243.41;;;12.62;100.00
38852;BME280;24605;50.092;9.182;2023-08-31T00:50:50;155274.78;;;12.75;100.00
38852;BME280;24605;50.092;9.182;2023-08-31T00:53:17;155294.38;;;12.82;100.00
38852;BME280;24605;50.092;9.182;2023-08-31T00:55:44;155298.28;;;12.84;100.00
38852;BME280;24605;50.092;9.182;2023-08-31T00:58:11;155299.56;;;12.84;100.00
38852;BME280;24605;50.092;9.182;2023-08-31T01:00:45;155283.91;;;12.78;100.00
38852;BME280;24605;50.092;9.182;2023-08-31T01:03:18;155298.28;;;12.84;100.00
38852;BME280;24605;50.092;9.182;2023-08-31T01:05:52;155290.41;;;12.81;100.00
38852;BME280;24605;50.092;9.182;2023-08-31T01:11:05;155315.25;;;12.91;100.00
38852;BME280;24605;50.092;9.182;2023-08-31T01:13:34;155304.78;;;12.87;100.00
38852;BME280;24605;50.092;9.182;2023-08-31T01:16:07;155270.88;;;12.73;100.00
38852;BME280;24605;50.092;9.182;2023-08-31T01:18:36;155263.03;;;12.70;100.00
38852;BME280;24605;50.092;9.182;2023-08-31T01:21:10;155278.66;;;12.76;100.00
38852;BME280;24605;50.092;9.182;2023-08-31T01:23:49;155296.94;;;12.83;100.00
38852;BME280;24605;50.092;9.182;2023-08-31T01:26:17;155287.81;;;12.80;100.00
38852;BME280;24605;50.092;9.182;2023-08-31T01:28:43;155303.50;;;12.86;100.00
38852;BME280;24605;50.092;9.182;2023-08-31T01:31:10;155325.69;;;12.95;100.00
38852;BME280;24605;50.092;9.182;2023-08-31T01:33:37;155329.56;;;12.96;100.00
38852;BME280;24605;50.092;9.182;2023-08-31T01:36:06;155380.53;;;13.16;100.00
38852;BME280;24605;50.092;9.182;2023-08-31T01:38:35;155379.22;;;13.16;100.00
38852;BME280;24605;50.092;9.182;2023-08-31T01:41:07;155375.31;;;13.14;100.00
38852;BME280;24605;50.092;9.182;2023-08-31T01:46:05;155351.81;;;13.05;100.00
38852;BME280;24605;50.092;9.182;2023-08-31T01:48:38;155373.97;;;13.14;100.00
38852;BME280;24605;50.092;9.182;2023-08-31T01:51:05;155323.06;;;12.94;100.00
38852;BME280;24605;50.092;9.182;2023-08-31T01:53:31;155316.53;;;12.91;100.00
38852;BME280;24605;50.092;9.182;2023-08-31T01:55:58;155347.91;;;13.04;100.00
38852;BME280;24605;50.092;9.182;2023-08-31T01:58:26;155357.03;;;13.07;100.00
38852;BME280;24605;50.092;9.182;2023-08-31T02:00:52;155336.16;;;12.99;100.00
38852;BME280;24605;50.092;9.182;2023-08-31T02:03:19;155371.41;;;13.13;100.00
38852;BME280;24605;50.092;9.182;2023-08-31T02:05:45;155360.94;;;13.09;100.00
38852;BME280;24605;50.092;9.182;2023-08-31T02:08:11;155389.69;;;13.20;100.00
38852;BME280;24605;50.092;9.182;2023-08-31T02:10:41;155371.41;;;13.13;100.00
38852;BME280;24605;50.092;9.182;2023-08-31T02:13:07;155349.19;;;13.04;100.00
38852;BME280;24605;50.092;9.182;2023-08-31T02:15:37;155311.31;;;12.89;100.00
38852;BME280;24605;50.092;9.182;2023-08-31T02:18:04;155319.16;;;12.92;100.00
38852;BME280;24605;50.092;9.182;2023-08-31T02:20:31;155304.78;;;12.87;100.00
38852;BME280;24605;50.092;9.182;2023-08-31T02:22:57;155307.41;;;12.88;100.00
38852;BME280;24605;50.092;9.182;2023-08-31T02:25:23;155320.44;;;12.93;100.00
38852;BME280;24605;50.092;9.182;2023-08-31T02:27:53;155259.13;;;12.68;100.00
38852;BME280;24605;50.092;9.182;2023-08-31T02:30:19;155221.25;;;12.53;100.00
38852;BME280;24605;50.092;9.182;2023-08-31T02:32:47;155244.75;;;12.63;100.00
38852;BME280;24605;50.092;9.182;2023-08-31T02:35:14;155226.50;;;12.56;100.00
38852;BME280;24605;50.092;9.182;2023-08-31T02:37:40;155234.28;;;12.59;100.00
38852;BME280;24605;50.092;9.182;2023-08-31T02:40:08;155239.53;;;12.61;100.00
38852;BME280;24605;50.092;9.182;2023-08-31T02:42:34;155219.91;;;12.53;100.00
38852;BME280;24605;50.092;9.182;2023-08-31T02:45:01;155222.53;;;12.54;100.00
38852;BME280;24605;50.092;9.182;2023-08-31T02:47:27;155200.38;;;12.45;100.00
38852;BME280;24605;50.092;9.182;2023-08-31T02:49:55;155212.13;;;12.50;100.00
38852;BME280;24605;50.092;9.182;2023-08-31T02:52:22;155159.91;;;12.29;100.00
38852;BME280;24605;50.092;9.182;2023-08-31T02:54:48;155219.91;;;12.53;100.00
38852;BME280;24605;50.092;9.182;2023-08-31T02:57:15;155231.66;;;12.58;100.00
38852;BME280;24605;50.092;9.182;2023-08-31T02:59:44;155223.88;;;12.54;100.00
38852;BME280;24605;50.092;9.182;2023-08-31T03:02:11;155260.41;;;12.69;100.00
38852;BME280;24605;50.092;9.182;2023-08-31T03:04:38;155229.06;;;12.57;100.00
38852;BME280;24605;50.092;9.182;2023-08-31T03:07:06;155251.28;;;12.65;100.00
38852;BME280;24605;50.092;9.182;2023-08-31T03:09:32;155255.16;;;12.67;100.00
38852;BME280;24605;50.092;9.182;2023-08-31T03:11:59;155218.63;;;12.52;100.00
38852;BME280;24605;50.092;9.182;2023-08-31T03:14:25;155249.97;;;12.65;100.00
38852;BME280;24605;50.092;9.182;2023-08-31T03:16:52;155268.25;;;12.72;100.00
38852;BME280;24605;50.092;9.182;2023-08-31T03:19:18;155246.03;;;12.63;100.00
38852;BME280;24605;50.092;9.182;2023-08-31T03:21:45;155263.03;;;12.70;100.00
38852;BME280;24605;50.092;9.182;2023-08-31T03:24:12;155230.38;;;12.57;100.00
38852;BME280;24605;50.092;9.182;2023-08-31T03:26:39;155227.78;;;12.56;100.00
38852;BME280;24605;50.092;9.182;2023-08-31T03:29:05;155242.13;;;12.62;100.00
38852;BME280;24605;50.092;9.182;2023-08-31T03:31:32;155227.78;;;12.56;100.00
38852;BME280;24605;50.092;9.182;2023-08-31T03:33:58;155268.25;;;12.72;100.00
38852;BME280;24605;50.092;9.182;2023-08-31T03:36:24;155278.66;;;12.76;100.00
38852;BME280;24605;50.092;9.182;2023-08-31T03:38:51;155261.69;;;12.69;100.00
38852;BME280;24605;50.092;9.182;2023-08-31T03:41:19;155265.63;;;12.71;100.00
38852;BME280;24605;50.092;9.182;2023-08-31T03:43:47;155290.41;;;12.81;100.00
38852;BME280;24605;50.092;9.182;2023-08-31T03:46:15;155287.81;;;12.80;100.00
38852;BME280;24605;50.092;9.182;2023-08-31T03:48:41;155269.53;;;12.73;100.00
38852;BME280;24605;50.092;9.182;2023-08-31T03:51:07;155282.63;;;12.78;100.00
38852;BME280;24605;50.092;9.182;2023-08-31T03:53:34;155278.66;;;12.76;100.00
38852;BME280;24605;50.092;9.182;2023-08-31T03:56:00;155296.94;;;12.83;100.00
38852;BME280;24605;50.092;9.182;2023-08-31T03:58:30;155316.53;;;12.91;100.00
38852;BME280;24605;50.092;9.182;2023-08-31T04:00:57;155283.91;;;12.78;100.00
38852;BME280;24605;50.092;9.182;2023-08-31T04:03:23;155293.03;;;12.82;100.00
38852;BME280;24605;50.092;9.182;2023-08-31T04:05:53;155307.41;;;12.88;100.00
38852;BME280;24605;50.092;9.182;2023-08-31T04:08:20;155280.00;;;12.77;100.00
38852;BME280;24605;50.092;9.182;2023-08-31T04:10:46;155274.78;;;12.75;100.00
38852;BME280;24605;50.092;9.182;2023-08-31T04:13:13;155283.91;;;12.78;100.00
38852;BME280;24605;50.092;9.182;2023-08-31T04:15:41;155246.03;;;12.63;100.00
38852;BME280;24605;50.092;9.182;2023-08-31T04:18:07;155259.13;;;12.68;100.00
38852;BME280;24605;50.092;9.182;2023-08-31T04:20:34;155265.63;;;12.71;100.00
38852;BME280;24605;50.092;9.182;2023-08-31T04:23:00;155265.63;;;12.71;100.00
38852;BME280;24605;50.092;9.182;2023-08-31T04:25:28;155266.91;;;12.72;100.00
38852;BME280;24605;50.092;9.182;2023-08-31T04:27:56;155249.97;;;12.65;100.00
38852;BME280;24605;50.092;9.182;2023-08-31T04:30:22;155274.78;;;12.75;100.00
38852;BME280;24605;50.092;9.182;2023-08-31T04:32:50;155274.78;;;12.75;100.00
38852;BME280;24605;50.092;9.182;2023-08-31T04:35:17;155251.28;;;12.65;100.00
38852;BME280;24605;50.092;9.182;2023-08-31T04:37:43;155260.41;;;12.69;100.00
38852;BME280;24605;50.092;9.182;2023-08-31T04:40:10;155212.13;;;12.50;100.00
38852;BME280;24605;50.092;9.182;2023-08-31T04:42:37;155191.25;;;12.42;100.00
38852;BME280;24605;50.092;9.182;2023-08-31T04:45:05;155209.50;;;12.49;100.00
38852;BME280;24605;50.092;9.182;2023-08-31T04:47:32;155230.38;;;12.57;100.00
38852;BME280;24605;50.092;9.182;2023-08-31T04:50:01;155169.03;;;12.33;100.00
38852;BME280;24605;50.092;9.182;2023-08-31T04:52:28;155189.91;;;12.41;100.00
38852;BME280;24605;50.092;9.182;2023-08-31T04:54:55;155166.41;;;12.32;100.00
38852;BME280;24605;50.092;9.182;2023-08-31T04:57:22;155107.69;;;12.09;100.00
38852;BME280;24605;50.092;9.182;2023-08-31T05:00:00;155073.72;;;11.95;100.00
38852;BME280;24605;50.092;9.182;2023-08-31T05:02:28;155219.91;;;12.53;100.00
38852;BME280;24605;50.092;9.182;2023-08-31T05:04:55;155193.84;;;12.43;100.00
38852;BME280;24605;50.092;9.182;2023-08-31T05:07:23;155172.94;;;12.34;100.00
38852;BME280;24605;50.092;9.182;2023-08-31T05:09:49;155159.91;;;12.29;100.00
38852;BME280;24605;50.092;9.182;2023-08-31T05:12:16;155189.91;;;12.41;100.00
38852;BME280;24605;50.092;9.182;2023-08-31T05:14:48;155170.34;;;12.33;100.00
38852;BME280;24605;50.092;9.182;2023-08-31T05:17:16;155204.28;;;12.47;100.00
38852;BME280;24605;50.092;9.182;2023-08-31T05:19:43;155234.28;;;12.59;100.00
38852;BME280;24605;50.092;9.182;2023-08-31T05:22:09;155259.13;;;12.68;100.00
38852;BME280;24605;50.092;9.182;2023-08-31T05:24:37;155283.91;;;12.78;100.00
38852;BME280;24605;50.092;9.182;2023-08-31T05:27:04;155283.91;;;12.78;100.00
38852;BME280;24605;50.092;9.182;2023-08-31T05:29:31;155289.13;;;12.80;100.00
38852;BME280;24605;50.092;9.182;2023-08-31T05:31:57;155270.88;;;12.73;100.00
38852;BME280;24605;50.092;9.182;2023-08-31T05:34:24;155303.50;;;12.86;100.00
38852;BME280;24605;50.092;9.182;2023-08-31T05:36:51;155217.31;;;12.52;100.00
38852;BME280;24605;50.092;9.182;2023-08-31T05:39:18;155236.91;;;12.60;100.00
38852;BME280;24605;50.092;9.182;2023-08-31T05:41:46;155246.03;;;12.63;100.00
38852;BME280;24605;50.092;9.182;2023-08-31T05:44:13;155226.50;;;12.56;100.00
38852;BME280;24605;50.092;9.182;2023-08-31T05:49:08;155139.03;;;12.21;100.00
38852;BME280;24605;50.092;9.182;2023-08-31T05:51:35;155157.28;;;12.28;100.00
38852;BME280;24605;50.092;9.182;2023-08-31T05:54:03;155146.88;;;12.24;100.00
38852;BME280;24605;50.092;9.182;2023-08-31T05:56:36;155183.41;;;12.38;100.00
38852;BME280;24605;50.092;9.182;2023-08-31T05:59:05;155166.41;;;12.32;100.00
38852;BME280;24605;50.092;9.182;2023-08-31T06:01:35;155172.94;;;12.34;100.00
38852;BME280;24605;50.092;9.182;2023-08-31T06:04:03;155154.66;;;12.27;100.00
38852;BME280;24605;50.092;9.182;2023-08-31T06:06:33;155116.81;;;12.12;100.00
38852;BME280;24605;50.092;9.182;2023-08-31T06:09:01;155041.13;;;11.82;100.00
38852;BME280;24605;50.092;9.182;2023-08-31T06:11:30;155152.06;;;12.26;100.00
38852;BME280;24605;50.092;9.182;2023-08-31T06:13:58;155303.50;;;12.86;100.00
38852;BME280;24605;50.092;9.182;2023-08-31T06:16:26;155329.56;;;12.96;100.00
38852;BME280;24605;50.092;9.182;2023-08-31T06:21:21;155413.19;;;13.29;100.00
38852;BME280;24605;50.092;9.182;2023-08-31T06:23:47;155351.81;;;13.05;100.00
38852;BME280;24605;50.092;9.182;2023-08-31T06:26:14;155316.53;;;12.91;100.00
38852;BME280;24605;50.092;9.182;2023-08-31T06:28:40;155272.16;;;12.74;100.00
38852;BME280;24605;50.092;9.182;2023-08-31T06:31:07;155264.31;;;12.70;100.00
38852;BME280;24605;50.092;9.182;2023-08-31T06:33:35;155311.31;;;12.89;100.00
38852;BME280;24605;50.092;9.182;2023-08-31T06:36:02;155290.41;;;12.81;100.00
38852;BME280;24605;50.092;9.182;2023-08-31T06:38:28;155358.31;;;13.08;100.00
38852;BME280;24605;50.092;9.182;2023-08-31T06:40:55;155447.16;;;13.43;100.00
38852;BME280;24605;50.092;9.182;2023-08-31T06:43:24;155426.22;;;13.35;100.00
38852;BME280;24605;50.092;9.182;2023-08-31T06:45:52;155410.56;;;13.28;100.00
38852;BME280;24605;50.092;9.182;2023-08-31T06:48:18;155358.31;;;13.08;100.00
38852;BME280;24605;50.092;9.182;2023-08-31T06:50:46;155327.00;;;12.95;100.00
38852;BME280;24605;50.092;9.182;2023-08-31T06:53:13;155315.25;;;12.91;100.00
38852;BME280;24605;50.092;9.182;2023-08-31T06:55:39;155310.03;;;12.89;100.00
38852;BME280;24605;50.092;9.182;2023-08-31T06:58:06;155332.19;;;12.97;100.00
38852;BME280;24605;50.092;9.182;2023-08-31T07:00:32;155276.06;;;12.75;100.00
38852;BME280;24605;50.092;9.182;2023-08-31T07:02:59;155371.41;;;13.13;100.00
38852;BME280;24605;50.092;9.182;2023-08-31T07:05:26;155334.81;;;12.98;100.00
38852;BME280;24605;50.092;9.182;2023-08-31T07:07:56;155357.03;;;13.07;100.00
38852;BME280;24605;50.092;9.182;2023-08-31T07:10:22;155388.34;;;13.20;100.00
38852;BME280;24605;50.092;9.182;2023-08-31T07:12:49;155401.44;;;13.25;100.00
38852;BME280;24605;50.092;9.182;2023-08-31T07:15:16;155428.84;;;13.36;100.00
38852;BME280;24605;50.092;9.182;2023-08-31T07:17:42;155464.16;;;13.50;100.00
38852;BME280;24605;50.092;9.182;2023-08-31T07:20:09;155503.34;;;13.65;100.00
38852;BME280;24605;50.092;9.182;2023-08-31T07:22:37;155556.91;;;13.86;100.00
38852;BME280;24605;50.092;9.182;2023-08-31T07:25:06;155558.22;;;13.87;100.00
38852;BME280;24605;50.092;9.182;2023-08-31T07:27:32;155571.28;;;13.92;100.00
38852;BME280;24605;50.092;9.182;2023-08-31T07:29:59;155585.66;;;13.98;100.00
38852;BME280;24605;50.092;9.182;2023-08-31T07:32:25;155615.69;;;14.09;100.00
38852;BME280;24605;50.092;9.182;2023-08-31T07:34:52;155619.59;;;14.11;100.00
38852;BME280;24605;50.092;9.182;2023-08-31T07:37:18;155607.84;;;14.06;100.00
38852;BME280;24605;50.092;9.182;2023-08-31T07:39:45;155511.19;;;13.68;100.00
38852;BME280;24605;50.092;9.182;2023-08-31T07:42:12;155530.75;;;13.76;100.00
38852;BME280;24605;50.092;9.182;2023-08-31T07:44:39;155534.72;;;13.77;100.00
38852;BME280;24605;50.092;9.182;2023-08-31T07:47:07;155590.91;;;14.00;100.00
38852;BME280;24605;50.092;9.182;2023-08-31T07:49:33;155577.81;;;13.94;100.00
38852;BME280;24605;50.092;9.182;2023-08-31T07:51:59;155589.56;;;13.99;100.00
38852;BME280;24605;50.092;9.182;2023-08-31T07:54:26;155624.84;;;14.13;100.00
38852;BME280;24605;50.092;9.182;2023-08-31T07:56:52;155584.38;;;13.97;100.00
38852;BME280;24605;50.092;9.182;2023-08-31T07:59:20;155588.28;;;13.99;100.00
38852;BME280;24605;50.092;9.182;2023-08-31T08:01:47;155547.75;;;13.83;100.00
38852;BME280;24605;50.092;9.182;2023-08-31T08:04:14;155589.56;;;13.99;100.00
38852;BME280;24605;50.092;9.182;2023-08-31T08:06:40;155596.09;;;14.02;100.00
38852;BME280;24605;50.092;9.182;2023-08-31T08:09:07;155640.50;;;14.19;100.00
38852;BME280;24605;50.092;9.182;2023-08-31T08:11:34;155683.66;;;14.36;100.00
38852;BME280;24605;50.092;9.182;2023-08-31T08:14:01;155711.09;;;14.47;100.00
38852;BME280;24605;50.092;9.182;2023-08-31T08:16:29;155733.34;;;14.56;100.00
38852;BME280;24605;50.092;9.182;2023-08-31T08:18:56;155739.84;;;14.58;100.00
38852;BME280;24605;50.092;9.182;2023-08-31T08:21:22;155813.13;;;14.87;100.00
38852;BME280;24605;50.092;9.182;2023-08-31T08:23:49;155766.06;;;14.69;100.00
38852;BME280;24605;50.092;9.182;2023-08-31T08:26:18;155784.34;;;14.76;100.00
38852;BME280;24605;50.092;9.182;2023-08-31T08:28:44;155836.66;;;14.97;100.00
38852;BME280;24605;50.092;9.182;2023-08-31T08:31:11;155856.25;;;15.04;100.00
38852;BME280;24605;50.092;9.182;2023-08-31T08:33:39;155912.47;;;15.27;100.00
38852;BME280;24605;50.092;9.182;2023-08-31T08:36:06;155857.59;;;15.05;100.00
38852;BME280;24605;50.092;9.182;2023-08-31T08:38:32;155946.50;;;15.40;100.00
38852;BME280;24605;50.092;9.182;2023-08-31T08:41:04;155904.66;;;15.24;100.00
38852;BME280;24605;50.092;9.182;2023-08-31T08:43:31;155909.84;;;15.26;100.00
38852;BME280;24605;50.092;9.182;2023-08-31T08:46:02;155958.28;;;15.45;100.00
38852;BME280;24605;50.092;9.182;2023-08-31T08:48:32;155917.72;;;15.29;100.00
38852;BME280;24605;50.092;9.182;2023-08-31T08:51:02;155922.97;;;15.31;100.00
38852;BME280;24605;50.092;9.182;2023-08-31T08:53:28;155827.53;;;14.93;100.00
38852;BME280;24605;50.092;9.182;2023-08-31T08:55:55;155934.72;;;15.35;100.00
38852;BME280;24605;50.092;9.182;2023-08-31T08:58:22;155936.03;;;15.36;100.00
38852;BME280;24605;50.092;9.182;2023-08-31T09:00:48;156000.13;;;15.61;100.00
38852;BME280;24605;50.092;9.182;2023-08-31T09:03:15;155966.09;;;15.48;100.00
38852;BME280;24605;50.092;9.182;2023-08-31T09:05:42;156064.28;;;15.87;100.00
38852;BME280;24605;50.092;9.182;2023-08-31T09:08:10;156044.59;;;15.79;100.00
38852;BME280;24605;50.092;9.182;2023-08-31T09:10:38;155988.34;;;15.57;100.00
38852;BME280;24605;50.092;9.182;2023-08-31T09:13:06;155929.50;;;15.33;100.00
38852;BME280;24605;50.092;9.182;2023-08-31T09:15:39;155980.50;;;15.54;100.00
38852;BME280;24605;50.092;9.182;2023-08-31T09:18:06;156044.59;;;15.79;100.00
38852;BME280;24605;50.092;9.182;2023-08-31T09:20:42;156119.22;;;16.08;100.00
38852;BME280;24605;50.092;9.182;2023-08-31T09:23:11;156167.59;;;16.27;100.00
38852;BME280;24605;50.092;9.182;2023-08-31T09:25:41;156078.63;;;15.92;99.45
38852;BME280;24605;50.092;9.182;2023-08-31T09:28:08;156005.38;;;15.63;100.00
38852;BME280;24605;50.092;9.182;2023-08-31T09:30:35;155964.81;;;15.47;100.00
38852;BME280;24605;50.092;9.182;2023-08-31T09:33:03;155972.66;;;15.50;99.38
38852;BME280;24605;50.092;9.182;2023-08-31T09:35:30;156005.38;;;15.63;100.00
38852;BME280;24605;50.092;9.182;2023-08-31T09:37:57;156085.22;;;15.95;98.98
38852;BME280;24605;50.092;9.182;2023-08-31T09:40:25;156085.22;;;15.95;98.57
38852;BME280;24605;50.092;9.182;2023-08-31T09:42:52;156144.06;;;16.18;97.26
38852;BME280;24605;50.092;9.182;2023-08-31T09:45:25;156212.09;;;16.45;96.70
38852;BME280;24605;50.092;9.182;2023-08-31T09:47:52;156285.41;;;16.74;95.12
38852;BME280;24605;50.092;9.182;2023-08-31T09:50:18;156312.91;;;16.85;91.80
38852;BME280;24605;50.092;9.182;2023-08-31T09:52:47;156306.34;;;16.82;92.77
38852;BME280;24605;50.092;9.182;2023-08-31T09:55:15;156291.94;;;16.76;90.28
38852;BME280;24605;50.092;9.182;2023-08-31T09:57:46;156307.69;;;16.83;90.58
38852;BME280;24605;50.092;9.182;2023-08-31T10:00:14;156299.81;;;16.80;91.54
38852;BME280;24605;50.092;9.182;2023-08-31T10:02:42;156373.19;;;17.09;92.32
38852;BME280;24605;50.092;9.182;2023-08-31T10:05:10;156315.50;;;16.86;89.64
38852;BME280;24605;50.092;9.182;2023-08-31T10:07:36;156272.34;;;16.69;92.13
38852;BME280;24605;50.092;9.182;2023-08-31T10:10:04;156260.56;;;16.64;92.87
38852;BME280;24605;50.092;9.182;2023-08-31T10:12:32;156226.50;;;16.51;95.03
38852;BME280;24605;50.092;9.182;2023-08-31T10:15:00;156213.44;;;16.45;95.47
38852;BME280;24605;50.092;9.182;2023-08-31T10:17:28;156150.63;;;16.21;98.49
38852;BME280;24605;50.092;9.182;2023-08-31T10:19:55;156053.75;;;15.82;100.00
38852;BME280;24605;50.092;9.182;2023-08-31T10:22:22;155924.25;;;15.31;100.00
38852;BME280;24605;50.092;9.182;2023-08-31T10:24:58;155854.97;;;15.04;100.00
38852;BME280;24605;50.092;9.182;2023-08-31T10:27:25;155865.41;;;15.08;100.00
38852;BME280;24605;50.092;9.182;2023-08-31T10:29:51;155922.97;;;15.31;100.00
38852;BME280;24605;50.092;9.182;2023-08-31T10:32:19;156008.00;;;15.64;100.00
38852;BME280;24605;50.092;9.182;2023-08-31T10:35:05;156059.03;;;15.85;100.00
38852;BME280;24605;50.092;9.182;2023-08-31T10:37:31;156106.16;;;16.03;100.00
38852;BME280;24605;50.092;9.182;2023-08-31T10:40:07;156111.34;;;16.05;100.00
38852;BME280;24605;50.092;9.182;2023-08-31T10:42:41;156168.94;;;16.28;100.00
38852;BME280;24605;50.092;9.182;2023-08-31T10:45:08;156320.75;;;16.88;100.00
38852;BME280;24605;50.092;9.182;2023-08-31T10:47:40;156369.25;;;17.07;100.00
38852;BME280;24605;50.092;9.182;2023-08-31T10:50:17;156428.16;;;17.30;98.86
38852;BME280;24605;50.092;9.182;2023-08-31T10:52:44;156350.91;;;17.00;97.41
38852;BME280;24605;50.092;9.182;2023-08-31T10:55:11;156302.44;;;16.81;97.42
38852;BME280;24605;50.092;9.182;2023-08-31T10:57:39;156390.19;;;17.15;98.09
38852;BME280;24605;50.092;9.182;2023-08-31T11:00:07;156394.13;;;17.17;98.52
38852;BME280;24605;50.092;9.182;2023-08-31T11:02:35;156339.13;;;16.95;97.25
38852;BME280;24605;50.092;9.182;2023-08-31T11:05:06;156252.69;;;16.61;99.03
38852;BME280;24605;50.092;9.182;2023-08-31T11:07:34;156192.50;;;16.37;100.00
38852;BME280;24605;50.092;9.182;2023-08-31T11:10:12;156230.47;;;16.52;100.00
38852;BME280;24605;50.092;9.182;2023-08-31T11:12:39;156259.22;;;16.64;100.00
38852;BME280;24605;50.092;9.182;2023-08-31T11:15:06;156399.38;;;17.19;99.73
38852;BME280;24605;50.092;9.182;2023-08-31T11:17:34;156462.25;;;17.44;96.54
38852;BME280;24605;50.092;9.182;2023-08-31T11:20:01;156374.47;;;17.09;97.36
38852;BME280;24605;50.092;9.182;2023-08-31T11:22:31;156432.13;;;17.32;96.94
38852;BME280;24605;50.092;9.182;2023-08-31T11:24:59;156471.41;;;17.47;96.15
38852;BME280;24605;50.092;9.182;2023-08-31T11:27:25;156517.22;;;17.65;93.99
38852;BME280;24605;50.092;9.182;2023-08-31T11:29:52;156468.78;;;17.46;94.30
38852;BME280;24605;50.092;9.182;2023-08-31T11:32:18;156420.34;;;17.27;97.11
38852;BME280;24605;50.092;9.182;2023-08-31T11:34:45;156373.19;;;17.09;96.89
38852;BME280;24605;50.092;9.182;2023-08-31T11:37:13;156386.28;;;17.14;94.28
38852;BME280;24605;50.092;9.182;2023-08-31T11:39:49;156447.81;;;17.38;97.73
38852;BME280;24605;50.092;9.182;2023-08-31T11:42:16;156497.59;;;17.58;91.80
38852;BME280;24605;50.092;9.182;2023-08-31T11:44:43;156573.53;;;17.88;92.17
38852;BME280;24605;50.092;9.182;2023-08-31T11:47:10;156577.50;;;17.89;87.98
38852;BME280;24605;50.092;9.182;2023-08-31T11:49:39;156694.16;;;18.35;87.03
38852;BME280;24605;50.092;9.182;2023-08-31T11:52:05;156692.81;;;18.35;87.07
38852;BME280;24605;50.092;9.182;2023-08-31T11:54:32;156641.72;;;18.14;83.31
38852;BME280;24605;50.092;9.182;2023-08-31T11:57:00;156606.34;;;18.00;81.91
38852;BME280;24605;50.092;9.182;2023-08-31T11:59:29;156628.63;;;18.09;86.55
38852;BME280;24605;50.092;9.182;2023-08-31T12:02:00;156606.34;;;18.00;86.08
38852;BME280;24605;50.092;9.182;2023-08-31T12:04:26;156669.22;;;18.25;85.91
38852;BME280;24605;50.092;9.182;2023-08-31T12:07:00;156656.13;;;18.20;85.77
38852;BME280;24605;50.092;9.182;2023-08-31T12:09:29;156547.34;;;17.77;86.87
38852;BME280;24605;50.092;9.182;2023-08-31T12:11:55;156494.97;;;17.57;86.29
38852;BME280;24605;50.092;9.182;2023-08-31T12:14:24;156522.47;;;17.67;88.70
38852;BME280;24605;50.092;9.182;2023-08-31T12:16:52;156522.47;;;17.67;90.78
38852;BME280;24605;50.092;9.182;2023-08-31T12:19:19;156515.94;;;17.65;92.67
38852;BME280;24605;50.092;9.182;2023-08-31T12:21:46;156518.56;;;17.66;92.94
38852;BME280;24605;50.092;9.182;2023-08-31T12:24:12;156543.41;;;17.76;94.40
38852;BME280;24605;50.092;9.182;2023-08-31T12:26:40;156616.84;;;18.05;94.92
38852;BME280;24605;50.092;9.182;2023-08-31T12:29:07;156720.34;;;18.45;95.46
38852;BME280;24605;50.092;9.182;2023-08-31T12:31:36;156762.28;;;18.62;88.96
38852;BME280;24605;50.092;9.182;2023-08-31T12:34:02;156763.56;;;18.62;85.32
38852;BME280;24605;50.092;9.182;2023-08-31T12:36:31;156774.09;;;18.67;88.83
38852;BME280;24605;50.092;9.182;2023-08-31T12:38:58;156821.28;;;18.85;88.03
38852;BME280;24605;50.092;9.182;2023-08-31T12:41:26;156793.72;;;18.74;87.37
38852;BME280;24605;50.092;9.182;2023-08-31T12:43:53;156839.66;;;18.92;86.19
38852;BME280;24605;50.092;9.182;2023-08-31T12:46:19;156871.09;;;19.05;86.03
38852;BME280;24605;50.092;9.182;2023-08-31T12:48:47;156839.66;;;18.92;85.32
38852;BME280;24605;50.092;9.182;2023-08-31T12:51:14;156865.88;;;19.03;86.94
38852;BME280;24605;50.092;9.182;2023-08-31T12:53:41;156795.03;;;18.75;86.56
38852;BME280;24605;50.092;9.182;2023-08-31T12:56:07;156791.09;;;18.73;85.30
38852;BME280;24605;50.092;9.182;2023-08-31T12:58:34;156770.13;;;18.65;83.04